ADDS METAR Data INFO
IDs: Format: Raw Decoded Include TAF

Data at: 0716 UTC 19 Oct 2017

KWYS 190710Z AUTO 00000KT 10SM CLR 00/M05 A3011 RMK AO2
KWYS 190650Z AUTO 00000KT 10SM CLR M01/M05 A3011 RMK AO2
KWYS 190630Z AUTO 26005KT 10SM CLR 02/M05 A3011 RMK AO2
KWYS 190610Z AUTO 00000KT 10SM CLR M01/M05 A3012 RMK AO2
KWYS 190545Z AUTO 00000KT 10SM CLR M01/M05 A3012 RMK AO2
KWYS 190525Z AUTO 22003KT 10SM CLR M01/M05 A3012 RMK AO2
KWYS 190510Z AUTO 00000KT 10SM CLR 01/M05 A3012 RMK AO2
KWYS 190450Z AUTO 00000KT 10SM CLR 02/M05 A3012 RMK AO2
KWYS 190430Z AUTO 00000KT 10SM CLR 01/M05 A3012 RMK AO2
KWYS 190410Z AUTO 00000KT 10SM CLR 04/M05 A3012 RMK AO2
KWYS 190350Z AUTO 27005KT 10SM CLR 05/M05 A3012 RMK AO2
KWYS 190330Z AUTO 13003KT 10SM CLR 03/M04 A3012 RMK AO2
KWYS 190310Z AUTO 23006KT 10SM CLR 07/M05 A3012 RMK AO2
KWYS 190245Z AUTO 24004KT 10SM CLR 07/M05 A3013 RMK AO2
KWYS 190230Z AUTO 00000KT 10SM CLR 07/M04 A3013 RMK AO2
KWYS 190210Z AUTO 24006KT 10SM CLR 08/M04 A3013 RMK AO2
KWYS 190110Z AUTO 24006KT 10SM CLR 09/M03 A3014 RMK AO2
KWYS 190050Z AUTO 24005KT 9SM CLR 09/M03 A3014 RMK AO2
KWYS 190025Z AUTO 23004KT 10SM CLR 10/M03 A3013 RMK AO2
KWYS 190005Z AUTO 22007KT 10SM CLR 10/M03 A3014 RMK AO2
KWYS 182350Z AUTO 22009G15KT 10SM CLR 10/M03 A3014 RMK AO2
KWYS 182330Z AUTO 23011KT 10SM CLR 11/M03 A3014 RMK AO2
KWYS 182310Z AUTO 23012G17KT 10SM CLR 11/M04 A3015 RMK AO2
KWYS 182255Z AUTO 22011G23KT 10SM CLR 11/M04 A3015 RMK AO2
KWYS 182235Z AUTO 25019G25KT 10SM CLR 12/M04 A3015 RMK AO2
KWYS 182215Z AUTO 22020KT 10SM CLR 13/M04 A3015 RMK AO2
KWYS 182150Z AUTO 22017G24KT 10SM CLR 13/M04 A3015 RMK AO2
KWYS 182135Z AUTO 22014G25KT 10SM CLR 13/M04 A3016 RMK AO2
KWYS 182110Z AUTO 22019G27KT 200V260 10SM CLR 12/M05 A3016 RMK AO2
KWYS 182045Z AUTO 21018G29KT 10SM CLR 12/M05 A3017 RMK AO2
KWYS 182010Z AUTO 22019G28KT 10SM CLR 11/M07 A3018 RMK AO2
KWYS 181945Z AUTO 20021G27KT 10SM CLR 12/M06 A3018 RMK AO2
KWYS 181925Z AUTO 23014G26KT 10SM CLR 12/M07 A3019 RMK AO2
KWYS 181910Z AUTO 23017G24KT 10SM CLR 12/M06 A3019 RMK AO2
KWYS 181850Z AUTO 22015G23KT 10SM CLR 11/M06 A3020 RMK AO2
KWYS 181830Z AUTO 25011G17KT 10SM CLR 11/M06 A3020 RMK AO2
KWYS 181810Z AUTO 21016KT 10SM CLR 11/M06 A3020 RMK AO2
KWYS 181750Z AUTO 23010G22KT 10SM CLR 10/M06 A3021 RMK AO2
KWYS 181730Z AUTO 23012G25KT 10SM CLR 10/M07 A3021 RMK AO2
KWYS 181710Z AUTO 22013G23KT 10SM CLR 09/M07 A3021 RMK AO2
KWYS 181650Z AUTO 22012G23KT 10SM CLR 09/M07 A3021 RMK AO2
KWYS 181625Z AUTO 23011G20KT 10SM CLR 08/M07 A3021 RMK AO2
KWYS 181605Z AUTO 22012G17KT 10SM CLR 08/M06 A3021 RMK AO2
KWYS 181545Z AUTO 00000KT 10SM CLR 06/M07 A3021 RMK AO2
KWYS 181530Z AUTO 17003KT 10SM CLR 06/M07 A3021 RMK AO2
KWYS 181510Z AUTO 00000KT 10SM CLR 03/M06 A3021 RMK AO2
KWYS 181450Z AUTO 00000KT 10SM CLR M00/M06 A3021 RMK AO2
KWYS 181430Z AUTO 00000KT 10SM CLR M02/M06 A3020 RMK AO2
KWYS 181410Z AUTO 00000KT 10SM CLR M02/M07 A3020 RMK AO2
KWYS 181350Z AUTO 00000KT 10SM CLR M03/M07 A3019 RMK AO2
KWYS 181325Z AUTO 00000KT 10SM CLR M01/M08 A3018 RMK AO2
KWYS 181305Z AUTO 00000KT 10SM CLR 01/M07 A3018 RMK AO2
KWYS 181250Z AUTO 02004KT 10SM CLR 01/M07 A3018 RMK AO2
KWYS 181230Z AUTO 04006KT 10SM CLR 04/M07 A3017 RMK AO2
KWYS 181210Z AUTO 23011G21KT 10SM CLR 04/M07 A3016 RMK AO2
KWYS 181145Z AUTO 24011KT 10SM CLR 04/M07 A3016 RMK AO2
KWYS 181130Z AUTO 23010KT 10SM CLR 04/M07 A3016 RMK AO2
KWYS 181110Z AUTO 26006KT 10SM CLR 04/M07 A3017 RMK AO2
KWYS 181050Z AUTO 24008G16KT 10SM CLR 05/M07 A3016 RMK AO2
KWYS 181030Z AUTO 24008G13KT 10SM CLR 05/M07 A3017 RMK AO2
KWYS 181005Z AUTO 25009G15KT 220V280 10SM CLR 05/M07 A3017 RMK AO2
KWYS 180950Z AUTO 22012G18KT 10SM CLR 05/M07 A3016 RMK AO2
KWYS 180930Z AUTO 24008KT 10SM CLR 05/M07 A3016 RMK AO2
KWYS 180910Z AUTO 24009KT 10SM CLR 05/M07 A3017 RMK AO2
KWYS 180845Z AUTO 25007G12KT 10SM CLR 06/M07 A3016 RMK AO2
KWYS 180830Z AUTO 25007KT 10SM CLR 06/M07 A3016 RMK AO2
KWYS 180810Z AUTO 24009G15KT 10SM CLR 06/M07 A3015 RMK AO2
KWYS 180750Z AUTO 22012G17KT 10SM CLR 06/M07 A3014 RMK AO2
KWYS 180730Z AUTO 22012KT 10SM CLR 06/M07 A3014 RMK AO2
KWYS 180710Z AUTO VRB05KT 10SM CLR 06/M07 A3015 RMK AO2
KWYS 180645Z AUTO VRB03KT 10SM CLR 06/M07 A3015 RMK AO2
KWYS 180630Z AUTO 00000KT 10SM CLR 07/M07 A3014 RMK AO2
KWYS 180610Z AUTO 19005G10KT 10SM CLR 07/M06 A3013 RMK AO2
KWYS 180550Z AUTO 20008G13KT 10SM CLR 08/M06 A3013 RMK AO2
KWYS 180530Z AUTO VRB04G11KT 10SM CLR 09/M06 A3013 RMK AO2
KWYS 180510Z AUTO 00000KT 10SM CLR 08/M06 A3014 RMK AO2
KWYS 180445Z AUTO VRB05KT 10SM CLR 08/M07 A3012 RMK AO2
KWYS 180425Z AUTO VRB03KT 10SM CLR 08/M07 A3012 RMK AO2
KWYS 180405Z AUTO VRB04G10KT 10SM CLR 08/M08 A3012 RMK AO2
KWYS 180350Z AUTO 00000KT 10SM CLR 07/M08 A3012 RMK AO2
KWYS 180330Z AUTO 00000KT 10SM CLR 08/M08 A3011 RMK AO2
KWYS 180310Z AUTO 00000KT 10SM CLR 08/M07 A3011 RMK AO2
KWYS 180250Z AUTO 00000KT 10SM CLR 08/M08 A3011 RMK AO2
KWYS 180225Z AUTO 05005KT 10SM CLR 08/M08 A3010 RMK AO2
KWYS 180205Z AUTO 07004G10KT 10SM CLR 09/M08 A3011 RMK AO2
KWYS 180150Z AUTO 08006KT 10SM CLR 09/M09 A3011 RMK AO2
KWYS 180130Z AUTO 11008KT 10SM CLR 09/M09 A3010 RMK AO2
KWYS 180110Z AUTO 10007G12KT 10SM CLR 09/M09 A3010 RMK AO2
KWYS 180050Z AUTO 09007KT 10SM CLR 09/M09 A3011 RMK AO2
KWYS 180030Z AUTO 08004KT 10SM CLR 10/M10 A3012 RMK AO2
KWYS 180010Z AUTO 00000KT 10SM CLR 11/M10 A3012 RMK AO2
KWYS 172345Z AUTO VRB06G13KT 10SM CLR 11/M11 A3012 RMK AO2
KWYS 172325Z AUTO 21008G18KT 10SM CLR 11/M11 A3012 RMK AO2
KWYS 172310Z AUTO 23008G16KT 10SM CLR 12/M11 A3011 RMK AO2
KWYS 172250Z AUTO 22007G16KT 160V240 10SM CLR 12/M10 A3012 RMK AO2
KWYS 172230Z AUTO 22011G19KT 10SM CLR 13/M10 A3012 RMK AO2
KWYS 172210Z AUTO 23012G20KT 180V260 10SM CLR 13/M10 A3012 RMK AO2
KWYS 172150Z AUTO 22015G25KT 190V250 10SM CLR 13/M11 A3012 RMK AO2
KWYS 172130Z AUTO 23013G29KT 200V260 10SM CLR 14/M11 A3013 RMK AO2
KWYS 172105Z AUTO 25008G22KT 220V280 10SM CLR 13/M10 A3014 RMK AO2
KWYS 172045Z AUTO 20007G17KT 10SM CLR 13/M10 A3016 RMK AO2
KWYS 172025Z AUTO 23009G15KT 10SM CLR 14/M09 A3017 RMK AO2
KWYS 172010Z AUTO 23016G21KT 10SM CLR 14/M09 A3017 RMK AO2
KWYS 171950Z AUTO 19014KT 160V220 10SM CLR 13/M09 A3018 RMK AO2
KWYS 171930Z AUTO 22014G22KT 10SM CLR 13/M08 A3020 RMK AO2